DLH763 VIDP-EDDM
Flight info
| Callsign | DLH763 |
|---|---|
| Flight time | N/A |
| Altitude | 36000 |
| Route | OROTI7C OROTI A589 BUTOP M875 JHANG A466 DI N644 REGET/N0495F380 N644 LEMOD A909 RODAR N644 ADEKI DCT BADIR DCT LAGAS DCT NOLGA UN61 GONPU/N0491F400 UN61 TBN UM11 CRM UL746 ODERO DCT LUGEB DCT MOPUG DCT SUNIS DCT AMADI Q113 NAPSA NAPSA4A |
| Aircraft | A388/J-SADE2E3FGHIJ3J4J5M1RWXY/LB1D1 |
Departure
| Time | 2026-05-06 16:02 |
|---|---|
| Airport | Indira Gandhi International Airport (VIDP) |
Arrival
| Time | N/A |
|---|---|
| Airport | Munich Airport (EDDM) |
| Time | Latitude | Longitude | Altitude | Speed | Heading |
|---|---|---|---|---|---|
| 2026-05-06 15:07 | 28.55525 | 77.07936 | 756 ft | 0 kts | 148° |
| 2026-05-06 15:46 | 28.55540 | 77.07926 | 756 ft | 4 kts | 148° |
| 2026-05-06 15:46 | 28.55558 | 77.07913 | 750 ft | 4 kts | 149° |
| 2026-05-06 15:46 | 28.55582 | 77.07898 | 754 ft | 4 kts | 156° |
| 2026-05-06 15:46 | 28.55607 | 77.07887 | 754 ft | 4 kts | 163° |
| 2026-05-06 15:47 | 28.55633 | 77.07880 | 750 ft | 4 kts | 172° |
| 2026-05-06 15:47 | 28.55642 | 77.07878 | 754 ft | 1 kts | 174° |
| 2026-05-06 15:50 | 28.55638 | 77.07879 | 756 ft | 2 kts | 176° |
| 2026-05-06 15:51 | 28.55614 | 77.07874 | 755 ft | 6 kts | 195° |
| 2026-05-06 15:51 | 28.55561 | 77.07851 | 756 ft | 10 kts | 202° |
| 2026-05-06 15:51 | 28.55489 | 77.07821 | 753 ft | 12 kts | 194° |
| 2026-05-06 15:51 | 28.55400 | 77.07797 | 754 ft | 14 kts | 193° |
| 2026-05-06 15:52 | 28.55299 | 77.07769 | 755 ft | 16 kts | 193° |
| 2026-05-06 15:52 | 28.55192 | 77.07738 | 754 ft | 12 kts | 194° |
| 2026-05-06 15:52 | 28.55137 | 77.07748 | 752 ft | 10 kts | 131° |
| 2026-05-06 15:52 | 28.55111 | 77.07832 | 756 ft | 13 kts | 103° |
| 2026-05-06 15:53 | 28.55085 | 77.07953 | 752 ft | 17 kts | 104° |
| 2026-05-06 15:53 | 28.55054 | 77.08087 | 755 ft | 18 kts | 105° |
| 2026-05-06 15:53 | 28.55021 | 77.08226 | 756 ft | 18 kts | 105° |
| 2026-05-06 15:53 | 28.54990 | 77.08369 | 754 ft | 19 kts | 104° |
| 2026-05-06 15:54 | 28.54956 | 77.08513 | 756 ft | 19 kts | 105° |
| 2026-05-06 15:54 | 28.54922 | 77.08660 | 756 ft | 19 kts | 104° |
| 2026-05-06 15:54 | 28.54888 | 77.08809 | 753 ft | 19 kts | 104° |
| 2026-05-06 15:54 | 28.54854 | 77.08958 | 756 ft | 20 kts | 104° |
| 2026-05-06 15:55 | 28.54819 | 77.09107 | 756 ft | 20 kts | 104° |
| 2026-05-06 15:55 | 28.54784 | 77.09258 | 756 ft | 20 kts | 104° |
| 2026-05-06 15:55 | 28.54749 | 77.09410 | 755 ft | 20 kts | 104° |
| 2026-05-06 15:55 | 28.54714 | 77.09562 | 753 ft | 20 kts | 104° |
| 2026-05-06 15:56 | 28.54679 | 77.09715 | 753 ft | 20 kts | 104° |
| 2026-05-06 15:56 | 28.54644 | 77.09867 | 756 ft | 20 kts | 104° |
| 2026-05-06 15:56 | 28.54608 | 77.10021 | 754 ft | 20 kts | 104° |
| 2026-05-06 15:56 | 28.54573 | 77.10173 | 755 ft | 20 kts | 104° |
| 2026-05-06 15:57 | 28.54539 | 77.10326 | 756 ft | 20 kts | 104° |
| 2026-05-06 15:57 | 28.54504 | 77.10479 | 754 ft | 20 kts | 104° |
| 2026-05-06 15:57 | 28.54466 | 77.10631 | 756 ft | 20 kts | 106° |
| 2026-05-06 15:57 | 28.54429 | 77.10785 | 752 ft | 20 kts | 105° |
| 2026-05-06 15:58 | 28.54393 | 77.10933 | 754 ft | 18 kts | 106° |
| 2026-05-06 15:58 | 28.54358 | 77.11073 | 753 ft | 19 kts | 106° |
| 2026-05-06 15:58 | 28.54322 | 77.11181 | 752 ft | 10 kts | 140° |
| 2026-05-06 15:58 | 28.54255 | 77.11189 | 754 ft | 11 kts | 189° |
| 2026-05-06 15:59 | 28.54170 | 77.11171 | 754 ft | 14 kts | 192° |
| 2026-05-06 15:59 | 28.54106 | 77.11153 | 754 ft | 0 kts | 202° |
| 2026-05-06 15:59 | 28.54101 | 77.11151 | 753 ft | 2 kts | 218° |
| 2026-05-06 15:59 | 28.54093 | 77.11126 | 751 ft | 5 kts | 270° |
| 2026-05-06 16:00 | 28.54101 | 77.11069 | 755 ft | 8 kts | 282° |
| 2026-05-06 16:00 | 28.54105 | 77.11051 | 755 ft | 0 kts | 283° |
| 2026-05-06 16:01 | 28.54108 | 77.11037 | 754 ft | 13 kts | 283° |
| 2026-05-06 16:01 | 28.54171 | 77.10741 | 753 ft | 71 kts | 284° |
| 2026-05-06 16:01 | 28.54342 | 77.09943 | 757 ft | 133 kts | 284° |
| 2026-05-06 16:01 | 28.54598 | 77.08752 | 756 ft | 173 kts | 283° |
| 2026-05-06 16:02 | 28.54883 | 77.07367 | 1047 ft | 180 kts | 283° |
| 2026-05-06 16:02 | 28.55161 | 77.05997 | 1473 ft | 182 kts | 282° |
| 2026-05-06 16:02 | 28.55343 | 77.04518 | 1747 ft | 190 kts | 266° |
| 2026-05-06 16:02 | 28.55119 | 77.03055 | 2135 ft | 190 kts | 257° |
| 2026-05-06 16:03 | 28.54808 | 77.01563 | 2404 ft | 199 kts | 255° |
| 2026-05-06 16:03 | 28.54435 | 77.00006 | 2590 ft | 214 kts | 253° |
| 2026-05-06 16:03 | 28.53983 | 76.98300 | 2843 ft | 234 kts | 252° |
| 2026-05-06 16:03 | 28.53468 | 76.96455 | 3085 ft | 256 kts | 253° |
| 2026-05-06 16:04 | 28.52931 | 76.94460 | 3381 ft | 272 kts | 255° |
| 2026-05-06 16:04 | 28.52386 | 76.92349 | 3746 ft | 281 kts | 256° |
| 2026-05-06 16:04 | 28.51875 | 76.90222 | 3975 ft | 274 kts | 257° |
| 2026-05-06 16:04 | 28.51434 | 76.88131 | 4348 ft | 272 kts | 264° |
| 2026-05-06 16:05 | 28.51430 | 76.85992 | 5028 ft | 270 kts | 279° |
| 2026-05-06 16:05 | 28.51857 | 76.83911 | 5685 ft | 271 kts | 286° |
| 2026-05-06 16:05 | 28.52336 | 76.81828 | 6312 ft | 274 kts | 285° |
| 2026-05-06 16:05 | 28.52798 | 76.79710 | 6940 ft | 277 kts | 284° |
| 2026-05-06 16:06 | 28.53253 | 76.77573 | 7557 ft | 279 kts | 284° |
| 2026-05-06 16:06 | 28.53714 | 76.75424 | 8154 ft | 282 kts | 285° |
| 2026-05-06 16:06 | 28.54182 | 76.73252 | 8760 ft | 283 kts | 286° |
| 2026-05-06 16:06 | 28.54847 | 76.71136 | 9324 ft | 285 kts | 296° |
| 2026-05-06 16:07 | 28.55855 | 76.69190 | 9905 ft | 286 kts | 306° |
| 2026-05-06 16:07 | 28.57042 | 76.67330 | 10244 ft | 299 kts | 306° |
| 2026-05-06 16:07 | 28.58272 | 76.65350 | 10407 ft | 315 kts | 305° |
| 2026-05-06 16:07 | 28.59558 | 76.63257 | 10586 ft | 330 kts | 305° |
| 2026-05-06 16:08 | 28.60880 | 76.61095 | 11080 ft | 334 kts | 305° |
| 2026-05-06 16:08 | 28.62208 | 76.58924 | 11738 ft | 334 kts | 305° |
| 2026-05-06 16:08 | 28.63539 | 76.56754 | 12385 ft | 335 kts | 305° |
| 2026-05-06 16:08 | 28.64874 | 76.54578 | 13023 ft | 336 kts | 305° |
| 2026-05-06 16:09 | 28.66217 | 76.52391 | 13601 ft | 339 kts | 305° |
| 2026-05-06 16:09 | 28.67576 | 76.50179 | 14154 ft | 342 kts | 305° |
| 2026-05-06 16:09 | 28.68938 | 76.47960 | 14729 ft | 344 kts | 305° |
| 2026-05-06 16:09 | 28.70314 | 76.45711 | 15260 ft | 347 kts | 305° |
| 2026-05-06 16:10 | 28.71696 | 76.43455 | 15802 ft | 349 kts | 305° |
| 2026-05-06 16:10 | 28.73090 | 76.41180 | 16332 ft | 351 kts | 305° |
| 2026-05-06 16:10 | 28.74486 | 76.38894 | 16844 ft | 353 kts | 305° |
| 2026-05-06 16:10 | 28.75894 | 76.36588 | 17361 ft | 355 kts | 305° |
| 2026-05-06 16:11 | 28.77313 | 76.34269 | 17836 ft | 358 kts | 305° |
| 2026-05-06 16:11 | 28.78739 | 76.31939 | 18326 ft | 360 kts | 305° |
| 2026-05-06 16:11 | 28.80173 | 76.29588 | 18770 ft | 362 kts | 305° |
| 2026-05-06 16:11 | 28.81610 | 76.27230 | 19233 ft | 364 kts | 305° |
| 2026-05-06 16:12 | 28.83059 | 76.24851 | 19655 ft | 367 kts | 305° |
| 2026-05-06 16:12 | 28.84519 | 76.22453 | 20080 ft | 369 kts | 305° |
| 2026-05-06 16:12 | 28.85987 | 76.20043 | 20514 ft | 371 kts | 305° |
| 2026-05-06 16:12 | 28.87463 | 76.17620 | 20905 ft | 373 kts | 305° |
| 2026-05-06 16:13 | 28.88951 | 76.15174 | 21299 ft | 376 kts | 304° |
| 2026-05-06 16:13 | 28.90440 | 76.12724 | 21719 ft | 377 kts | 304° |
| 2026-05-06 16:13 | 28.91943 | 76.10252 | 22088 ft | 380 kts | 304° |
| 2026-05-06 16:13 | 28.93450 | 76.07769 | 22460 ft | 382 kts | 305° |
| 2026-05-06 16:14 | 28.94971 | 76.05264 | 22838 ft | 385 kts | 304° |
| 2026-05-06 16:14 | 28.96499 | 76.02744 | 23203 ft | 387 kts | 304° |
| 2026-05-06 16:14 | 28.98035 | 76.00207 | 23562 ft | 389 kts | 304° |
| 2026-05-06 16:14 | 28.99576 | 75.97666 | 23978 ft | 390 kts | 304° |
| 2026-05-06 16:15 | 29.01110 | 75.95135 | 24537 ft | 387 kts | 305° |
| 2026-05-06 16:15 | 29.02626 | 75.92628 | 24820 ft | 391 kts | 304° |
| 2026-05-06 16:15 | 29.04177 | 75.90061 | 25152 ft | 394 kts | 304° |
| 2026-05-06 16:15 | 29.05739 | 75.87475 | 25494 ft | 396 kts | 304° |
| 2026-05-06 16:16 | 29.07308 | 75.84875 | 25864 ft | 399 kts | 304° |
| 2026-05-06 16:16 | 29.08888 | 75.82260 | 26232 ft | 401 kts | 304° |
| 2026-05-06 16:16 | 29.10478 | 75.79624 | 26603 ft | 404 kts | 304° |
| 2026-05-06 16:16 | 29.12079 | 75.76965 | 26948 ft | 407 kts | 304° |
| 2026-05-06 16:17 | 29.13690 | 75.74293 | 27333 ft | 409 kts | 304° |
| 2026-05-06 16:17 | 29.15309 | 75.71605 | 27727 ft | 411 kts | 304° |
| 2026-05-06 16:17 | 29.16931 | 75.68907 | 28108 ft | 413 kts | 304° |
| 2026-05-06 16:17 | 29.18567 | 75.66184 | 28445 ft | 417 kts | 304° |
| 2026-05-06 16:18 | 29.20216 | 75.63439 | 28813 ft | 420 kts | 304° |
| 2026-05-06 16:18 | 29.21874 | 75.60679 | 29228 ft | 421 kts | 304° |
| 2026-05-06 16:18 | 29.23532 | 75.57914 | 29581 ft | 423 kts | 304° |
| 2026-05-06 16:18 | 29.25209 | 75.55116 | 29936 ft | 426 kts | 304° |
| 2026-05-06 16:19 | 29.26888 | 75.52313 | 30298 ft | 429 kts | 304° |
| 2026-05-06 16:19 | 29.28521 | 75.49442 | 30667 ft | 431 kts | 300° |
| 2026-05-06 16:19 | 29.29930 | 75.46415 | 31069 ft | 432 kts | 297° |
| 2026-05-06 16:19 | 29.31322 | 75.43349 | 31399 ft | 435 kts | 297° |
| 2026-05-06 16:20 | 29.32777 | 75.40304 | 31769 ft | 436 kts | 301° |
| 2026-05-06 16:20 | 29.34487 | 75.37428 | 32144 ft | 438 kts | 306° |
| 2026-05-06 16:20 | 29.36331 | 75.34631 | 32422 ft | 441 kts | 305° |
| 2026-05-06 16:20 | 29.38168 | 75.31804 | 32787 ft | 443 kts | 305° |
| 2026-05-06 16:21 | 29.40007 | 75.28955 | 33144 ft | 444 kts | 305° |
| 2026-05-06 16:21 | 29.41851 | 75.26096 | 33441 ft | 447 kts | 304° |
| 2026-05-06 16:21 | 29.43700 | 75.23227 | 33785 ft | 448 kts | 304° |
| 2026-05-06 16:21 | 29.45560 | 75.20343 | 34079 ft | 451 kts | 304° |
| 2026-05-06 16:22 | 29.47428 | 75.17446 | 34396 ft | 453 kts | 304° |
| 2026-05-06 16:22 | 29.49296 | 75.14544 | 34791 ft | 452 kts | 304° |
| 2026-05-06 16:22 | 29.51140 | 75.11679 | 35216 ft | 452 kts | 304° |
| 2026-05-06 16:22 | 29.53003 | 75.08784 | 35662 ft | 450 kts | 304° |
| 2026-05-06 16:23 | 29.54870 | 75.05879 | 35797 ft | 451 kts | 304° |
| 2026-05-06 16:23 | 29.56722 | 75.02997 | 35794 ft | 448 kts | 304° |
| 2026-05-06 16:23 | 29.60433 | 74.97212 | 35794 ft | 451 kts | 304° |
| 2026-05-06 16:24 | 29.64153 | 74.91407 | 35797 ft | 451 kts | 304° |
| 2026-05-06 16:24 | 29.67872 | 74.85596 | 35795 ft | 451 kts | 304° |
| 2026-05-06 16:25 | 29.71589 | 74.79779 | 35781 ft | 451 kts | 304° |
| 2026-05-06 16:25 | 29.75297 | 74.73970 | 35766 ft | 451 kts | 304° |
| 2026-05-06 16:26 | 29.79003 | 74.68153 | 35766 ft | 451 kts | 304° |
| 2026-05-06 16:26 | 29.82706 | 74.62330 | 35788 ft | 451 kts | 304° |
| 2026-05-06 16:27 | 29.86409 | 74.56503 | 35782 ft | 451 kts | 303° |
| 2026-05-06 16:27 | 29.90118 | 74.50660 | 35788 ft | 451 kts | 303° |
| 2026-05-06 16:28 | 29.93817 | 74.44818 | 35788 ft | 452 kts | 303° |
| 2026-05-06 16:28 | 29.97525 | 74.38960 | 35789 ft | 453 kts | 303° |
| 2026-05-06 16:29 | 30.00612 | 74.34080 | 35792 ft | 453 kts | 303° |
| 2026-05-06 16:29 | 30.04316 | 74.28204 | 35788 ft | 453 kts | 303° |
| 2026-05-06 16:30 | 30.07427 | 74.23264 | 35790 ft | 453 kts | 303° |
| 2026-05-06 16:30 | 30.11732 | 74.16423 | 35788 ft | 453 kts | 303° |
| 2026-05-06 16:31 | 30.15433 | 74.10535 | 35768 ft | 453 kts | 303° |
| 2026-05-06 16:31 | 30.19123 | 74.04650 | 35784 ft | 452 kts | 303° |
| 2026-05-06 16:32 | 30.22819 | 73.98752 | 35786 ft | 452 kts | 303° |
| 2026-05-06 16:32 | 30.26511 | 73.92856 | 35768 ft | 452 kts | 303° |
| 2026-05-06 16:33 | 30.30199 | 73.86974 | 35761 ft | 452 kts | 303° |
| 2026-05-06 16:34 | 30.35732 | 73.78128 | 35762 ft | 452 kts | 303° |
| 2026-05-06 16:34 | 30.39421 | 73.72223 | 35770 ft | 453 kts | 303° |
| 2026-05-06 16:35 | 30.43109 | 73.66309 | 35764 ft | 453 kts | 304° |
| 2026-05-06 16:35 | 30.46800 | 73.60381 | 35768 ft | 454 kts | 304° |
| 2026-05-06 16:36 | 30.50493 | 73.54441 | 35768 ft | 454 kts | 304° |
| 2026-05-06 16:36 | 30.54182 | 73.48499 | 35774 ft | 454 kts | 304° |
| 2026-05-06 16:37 | 30.57871 | 73.42541 | 35764 ft | 454 kts | 304° |
| 2026-05-06 16:37 | 30.61560 | 73.36579 | 35768 ft | 455 kts | 304° |
| 2026-05-06 16:38 | 30.65245 | 73.30620 | 35770 ft | 455 kts | 304° |
| 2026-05-06 16:38 | 30.68931 | 73.24649 | 35765 ft | 455 kts | 305° |
| 2026-05-06 16:39 | 30.72614 | 73.18674 | 35764 ft | 454 kts | 305° |
| 2026-05-06 16:39 | 30.76293 | 73.12698 | 35765 ft | 454 kts | 305° |
| 2026-05-06 16:40 | 30.79940 | 73.06771 | 35768 ft | 454 kts | 305° |
| 2026-05-06 16:40 | 30.83608 | 73.00794 | 35761 ft | 454 kts | 305° |
| 2026-05-06 16:41 | 30.87274 | 72.94809 | 35767 ft | 454 kts | 305° |
| 2026-05-06 16:41 | 30.90935 | 72.88827 | 35772 ft | 453 kts | 305° |
| 2026-05-06 16:42 | 30.94587 | 72.82853 | 35768 ft | 453 kts | 306° |
| 2026-05-06 16:42 | 30.98239 | 72.76868 | 35763 ft | 453 kts | 306° |
| 2026-05-06 16:43 | 31.01886 | 72.70883 | 35766 ft | 453 kts | 306° |
| 2026-05-06 16:43 | 31.05528 | 72.64893 | 35784 ft | 452 kts | 306° |
| 2026-05-06 16:44 | 31.09163 | 72.58906 | 35770 ft | 452 kts | 306° |
| 2026-05-06 16:44 | 31.12799 | 72.52911 | 35765 ft | 452 kts | 306° |
| 2026-05-06 16:45 | 31.16430 | 72.46914 | 35763 ft | 452 kts | 306° |
| 2026-05-06 16:45 | 31.20029 | 72.40962 | 35765 ft | 451 kts | 306° |
| 2026-05-06 16:46 | 31.23665 | 72.34941 | 35759 ft | 451 kts | 306° |
| 2026-05-06 16:46 | 31.27146 | 72.28906 | 35763 ft | 451 kts | 302° |
| 2026-05-06 16:47 | 31.30140 | 72.22458 | 35756 ft | 451 kts | 300° |
| 2026-05-06 16:47 | 31.33161 | 72.15976 | 35753 ft | 451 kts | 300° |
| 2026-05-06 16:48 | 31.36137 | 72.09567 | 35761 ft | 451 kts | 301° |
| 2026-05-06 16:48 | 31.39125 | 72.03114 | 35758 ft | 451 kts | 300° |
| 2026-05-06 16:49 | 31.42105 | 71.96664 | 35758 ft | 451 kts | 301° |
| 2026-05-06 16:49 | 31.45083 | 71.90204 | 35758 ft | 451 kts | 301° |
| 2026-05-06 16:50 | 31.48056 | 71.83746 | 35758 ft | 450 kts | 301° |
| 2026-05-06 16:50 | 31.51025 | 71.77287 | 35753 ft | 450 kts | 301° |
| 2026-05-06 16:51 | 31.53983 | 71.70841 | 35749 ft | 449 kts | 301° |
| 2026-05-06 16:51 | 31.56938 | 71.64391 | 35746 ft | 449 kts | 301° |
| 2026-05-06 16:52 | 31.59886 | 71.57945 | 35745 ft | 448 kts | 300° |
| 2026-05-06 16:52 | 31.62828 | 71.51490 | 35744 ft | 449 kts | 300° |
| 2026-05-06 16:53 | 31.65764 | 71.45032 | 35743 ft | 448 kts | 300° |
| 2026-05-06 16:53 | 31.68703 | 71.38568 | 35742 ft | 449 kts | 300° |
| 2026-05-06 16:54 | 31.71638 | 71.32104 | 35726 ft | 449 kts | 300° |
| 2026-05-06 16:54 | 31.74568 | 71.25633 | 35722 ft | 448 kts | 300° |
| 2026-05-06 16:55 | 31.77488 | 71.19168 | 35722 ft | 448 kts | 300° |
| 2026-05-06 16:55 | 31.80388 | 71.12741 | 35725 ft | 448 kts | 300° |
| 2026-05-06 16:56 | 31.83304 | 71.06272 | 35731 ft | 447 kts | 300° |
| 2026-05-06 16:56 | 31.86209 | 70.99811 | 35729 ft | 447 kts | 300° |
| 2026-05-06 16:57 | 31.89111 | 70.93343 | 35729 ft | 447 kts | 300° |
| 2026-05-06 16:57 | 31.92289 | 70.87035 | 35729 ft | 445 kts | 307° |
| 2026-05-06 16:58 | 31.96032 | 70.81314 | 35731 ft | 443 kts | 309° |
| 2026-05-06 16:58 | 31.99822 | 70.75519 | 35729 ft | 443 kts | 309° |
| 2026-05-06 16:59 | 32.03579 | 70.69765 | 35739 ft | 443 kts | 309° |
| 2026-05-06 16:59 | 32.07342 | 70.64005 | 35742 ft | 443 kts | 309° |
| 2026-05-06 17:00 | 32.11107 | 70.58235 | 35739 ft | 443 kts | 309° |
| 2026-05-06 17:00 | 32.14833 | 70.52513 | 35737 ft | 443 kts | 309° |
| 2026-05-06 17:01 | 32.18587 | 70.46742 | 35736 ft | 443 kts | 309° |
| 2026-05-06 17:01 | 32.22338 | 70.40971 | 35745 ft | 443 kts | 309° |
| 2026-05-06 17:02 | 32.26082 | 70.35195 | 35742 ft | 442 kts | 309° |
| 2026-05-06 17:02 | 32.29822 | 70.29419 | 35750 ft | 442 kts | 309° |
| 2026-05-06 17:03 | 32.33556 | 70.23648 | 35747 ft | 442 kts | 309° |
| 2026-05-06 17:03 | 32.37295 | 70.17866 | 35744 ft | 443 kts | 309° |
| 2026-05-06 17:04 | 32.41099 | 70.12138 | 35753 ft | 442 kts | 310° |
| 2026-05-06 17:04 | 32.44927 | 70.06438 | 35745 ft | 442 kts | 310° |
| 2026-05-06 17:05 | 32.48737 | 70.00737 | 35749 ft | 442 kts | 309° |
| 2026-05-06 17:05 | 32.52541 | 69.95022 | 35748 ft | 441 kts | 309° |
| 2026-05-06 17:06 | 32.56340 | 69.89303 | 35760 ft | 442 kts | 309° |
| 2026-05-06 17:06 | 32.60115 | 69.83614 | 35758 ft | 442 kts | 309° |
| 2026-05-06 17:07 | 32.63911 | 69.77883 | 35768 ft | 442 kts | 309° |
| 2026-05-06 17:07 | 32.67714 | 69.72134 | 35767 ft | 443 kts | 309° |
| 2026-05-06 17:08 | 32.71520 | 69.66372 | 35788 ft | 444 kts | 309° |
| 2026-05-06 17:08 | 32.75326 | 69.60597 | 35784 ft | 444 kts | 309° |
| 2026-05-06 17:09 | 32.79140 | 69.54810 | 35789 ft | 445 kts | 309° |
| 2026-05-06 17:09 | 32.82952 | 69.49007 | 35789 ft | 445 kts | 309° |
| 2026-05-06 17:10 | 32.86763 | 69.43200 | 35792 ft | 445 kts | 309° |
| 2026-05-06 17:10 | 32.90561 | 69.37385 | 35785 ft | 445 kts | 309° |
| 2026-05-06 17:11 | 32.94347 | 69.31567 | 35763 ft | 444 kts | 309° |
| 2026-05-06 17:11 | 32.98128 | 69.25752 | 35760 ft | 444 kts | 309° |
| 2026-05-06 17:12 | 33.01905 | 69.19937 | 35762 ft | 444 kts | 309° |
| 2026-05-06 17:12 | 33.05680 | 69.14119 | 35781 ft | 444 kts | 309° |
| 2026-05-06 17:13 | 33.09460 | 69.08283 | 35791 ft | 445 kts | 309° |
| 2026-05-06 17:13 | 33.13216 | 69.02469 | 35780 ft | 446 kts | 309° |
| 2026-05-06 17:14 | 33.17005 | 68.96602 | 35794 ft | 447 kts | 309° |
| 2026-05-06 17:14 | 33.20787 | 68.90732 | 35794 ft | 446 kts | 309° |
| 2026-05-06 17:15 | 33.24573 | 68.84848 | 35792 ft | 447 kts | 309° |
| 2026-05-06 17:15 | 33.28358 | 68.78959 | 35786 ft | 446 kts | 309° |
| 2026-05-06 17:16 | 33.32379 | 68.73310 | 35792 ft | 446 kts | 312° |
| 2026-05-06 17:16 | 33.36460 | 68.67728 | 35794 ft | 445 kts | 311° |
| 2026-05-06 17:17 | 33.39823 | 68.63061 | 35799 ft | 446 kts | 311° |
| 2026-05-06 17:17 | 33.43856 | 68.57421 | 35796 ft | 446 kts | 311° |
| 2026-05-06 17:18 | 33.47894 | 68.51759 | 35798 ft | 446 kts | 311° |
| 2026-05-06 17:18 | 33.51927 | 68.46097 | 35793 ft | 447 kts | 311° |
| 2026-05-06 17:19 | 33.55952 | 68.40428 | 35794 ft | 447 kts | 310° |
| 2026-05-06 17:19 | 33.59891 | 68.34655 | 35794 ft | 447 kts | 310° |
| 2026-05-06 17:20 | 33.63814 | 68.28866 | 35801 ft | 447 kts | 310° |
| 2026-05-06 17:20 | 33.67749 | 68.23079 | 35812 ft | 448 kts | 310° |
| 2026-05-06 17:21 | 33.71695 | 68.17276 | 36098 ft | 450 kts | 310° |
| 2026-05-06 17:21 | 33.73676 | 68.14360 | 36528 ft | 449 kts | 310° |
| 2026-05-06 17:21 | 33.75643 | 68.11462 | 36914 ft | 448 kts | 309° |
| 2026-05-06 17:21 | 33.77598 | 68.08576 | 37481 ft | 442 kts | 309° |
| 2026-05-06 17:22 | 33.79517 | 68.05745 | 37773 ft | 444 kts | 309° |
| 2026-05-06 17:22 | 33.81440 | 68.02904 | 37826 ft | 433 kts | 309° |
| 2026-05-06 17:22 | 33.83330 | 68.00108 | 37822 ft | 430 kts | 309° |
| 2026-05-06 17:23 | 33.87118 | 67.94503 | 37819 ft | 433 kts | 309° |
| 2026-05-06 17:23 | 33.90918 | 67.88872 | 37824 ft | 433 kts | 309° |
| 2026-05-06 17:24 | 33.94706 | 67.83241 | 37822 ft | 433 kts | 309° |
| 2026-05-06 17:24 | 33.98502 | 67.77603 | 37822 ft | 434 kts | 309° |
| 2026-05-06 17:25 | 34.02263 | 67.71923 | 37842 ft | 433 kts | 309° |
| 2026-05-06 17:25 | 34.06009 | 67.66235 | 37843 ft | 433 kts | 308° |
| 2026-05-06 17:26 | 34.09770 | 67.60533 | 37841 ft | 434 kts | 308° |
| 2026-05-06 17:26 | 34.13517 | 67.54842 | 37866 ft | 433 kts | 308° |
| 2026-05-06 17:27 | 34.17238 | 67.49183 | 37863 ft | 433 kts | 308° |
| 2026-05-06 17:27 | 34.20986 | 67.43466 | 37862 ft | 434 kts | 308° |
| 2026-05-06 17:28 | 34.24733 | 67.37748 | 37859 ft | 434 kts | 308° |
| 2026-05-06 17:28 | 34.28479 | 67.32023 | 37863 ft | 434 kts | 308° |
| 2026-05-06 17:29 | 34.32223 | 67.26292 | 37858 ft | 434 kts | 308° |
| 2026-05-06 17:29 | 34.35965 | 67.20555 | 37856 ft | 434 kts | 308° |
| 2026-05-06 17:30 | 34.39705 | 67.14811 | 37863 ft | 435 kts | 308° |
| 2026-05-06 17:30 | 34.43454 | 67.09046 | 37868 ft | 435 kts | 308° |
| 2026-05-06 17:31 | 34.47170 | 67.03319 | 37864 ft | 435 kts | 308° |
| 2026-05-06 17:31 | 34.50934 | 66.97509 | 37861 ft | 435 kts | 308° |
| 2026-05-06 17:32 | 34.54669 | 66.91738 | 37883 ft | 435 kts | 308° |
| 2026-05-06 17:32 | 34.58376 | 66.85992 | 37864 ft | 435 kts | 308° |
| 2026-05-06 17:33 | 34.62108 | 66.80191 | 37859 ft | 436 kts | 308° |
| 2026-05-06 17:33 | 34.65833 | 66.74392 | 37862 ft | 436 kts | 308° |
| 2026-05-06 17:34 | 34.69563 | 66.68579 | 37864 ft | 436 kts | 308° |
| 2026-05-06 17:34 | 34.73294 | 66.62756 | 37863 ft | 436 kts | 307° |
| 2026-05-06 17:35 | 34.77014 | 66.56940 | 37857 ft | 436 kts | 307° |
| 2026-05-06 17:35 | 34.80739 | 66.51107 | 37860 ft | 437 kts | 307° |
| 2026-05-06 17:36 | 34.86331 | 66.42330 | 37864 ft | 438 kts | 307° |
| 2026-05-06 17:36 | 34.90058 | 66.36469 | 37884 ft | 438 kts | 307° |
| 2026-05-06 17:37 | 34.93761 | 66.30644 | 37862 ft | 437 kts | 307° |
| 2026-05-06 17:37 | 34.97483 | 66.24773 | 37863 ft | 438 kts | 307° |
| 2026-05-06 17:38 | 35.01183 | 66.18855 | 37886 ft | 439 kts | 307° |
| 2026-05-06 17:38 | 35.04881 | 66.12923 | 37881 ft | 439 kts | 307° |
| 2026-05-06 17:39 | 35.08582 | 66.06990 | 37883 ft | 439 kts | 307° |
| 2026-05-06 17:39 | 35.12283 | 66.01047 | 37883 ft | 440 kts | 307° |
| 2026-05-06 17:40 | 35.15986 | 65.95094 | 37885 ft | 440 kts | 307° |
| 2026-05-06 17:40 | 35.19689 | 65.89125 | 37885 ft | 440 kts | 307° |
| 2026-05-06 17:41 | 35.23389 | 65.83151 | 37865 ft | 441 kts | 307° |
| 2026-05-06 17:41 | 35.27092 | 65.77164 | 37874 ft | 441 kts | 307° |
| 2026-05-06 17:42 | 35.30791 | 65.71173 | 37860 ft | 442 kts | 307° |
| 2026-05-06 17:42 | 35.34492 | 65.65169 | 37863 ft | 442 kts | 307° |
| 2026-05-06 17:43 | 35.38192 | 65.59158 | 37864 ft | 442 kts | 306° |
| 2026-05-06 17:43 | 35.41889 | 65.53134 | 37882 ft | 442 kts | 306° |
| 2026-05-06 17:44 | 35.45589 | 65.47103 | 37880 ft | 443 kts | 306° |
| 2026-05-06 17:44 | 35.49283 | 65.41068 | 37885 ft | 443 kts | 306° |
| 2026-05-06 17:45 | 35.52952 | 65.35064 | 37867 ft | 442 kts | 306° |
| 2026-05-06 17:45 | 35.56643 | 65.29015 | 37859 ft | 443 kts | 306° |
| 2026-05-06 17:46 | 35.60329 | 65.22960 | 37867 ft | 442 kts | 306° |
| 2026-05-06 17:46 | 35.64010 | 65.16907 | 37862 ft | 442 kts | 306° |
| 2026-05-06 17:47 | 35.67680 | 65.10859 | 37865 ft | 441 kts | 306° |
| 2026-05-06 17:47 | 35.71346 | 65.04807 | 37884 ft | 440 kts | 306° |
| 2026-05-06 17:48 | 35.75006 | 64.98759 | 37859 ft | 440 kts | 306° |
| 2026-05-06 17:48 | 35.78663 | 64.92699 | 37858 ft | 441 kts | 306° |
| 2026-05-06 17:49 | 35.82313 | 64.86642 | 37858 ft | 441 kts | 306° |
| 2026-05-06 17:49 | 35.85964 | 64.80572 | 37858 ft | 441 kts | 306° |
| 2026-05-06 17:50 | 35.89614 | 64.74491 | 37855 ft | 440 kts | 305° |
| 2026-05-06 17:50 | 35.93257 | 64.68415 | 37863 ft | 440 kts | 305° |
| 2026-05-06 17:51 | 35.96870 | 64.62378 | 37861 ft | 440 kts | 305° |
| 2026-05-06 17:51 | 36.00505 | 64.56294 | 37860 ft | 440 kts | 305° |
| 2026-05-06 17:52 | 36.04142 | 64.50198 | 37842 ft | 441 kts | 305° |
| 2026-05-06 17:52 | 36.07777 | 64.44085 | 37849 ft | 442 kts | 305° |
| 2026-05-06 17:53 | 36.11412 | 64.37968 | 37849 ft | 442 kts | 305° |
| 2026-05-06 17:53 | 36.15054 | 64.31833 | 37851 ft | 442 kts | 305° |
| 2026-05-06 17:54 | 36.18728 | 64.25719 | 37857 ft | 443 kts | 306° |
| 2026-05-06 17:54 | 36.22528 | 64.19711 | 37854 ft | 443 kts | 307° |
| 2026-05-06 17:55 | 36.26323 | 64.13695 | 37853 ft | 443 kts | 306° |
| 2026-05-06 17:55 | 36.30099 | 64.07661 | 37853 ft | 443 kts | 306° |
| 2026-05-06 17:56 | 36.33864 | 64.01626 | 37854 ft | 443 kts | 306° |
| 2026-05-06 17:56 | 36.37628 | 63.95583 | 37861 ft | 442 kts | 306° |
| 2026-05-06 17:57 | 36.41384 | 63.89539 | 37863 ft | 442 kts | 306° |
| 2026-05-06 17:57 | 36.45132 | 63.83496 | 37866 ft | 442 kts | 306° |
| 2026-05-06 17:58 | 36.48885 | 63.77438 | 37863 ft | 442 kts | 306° |
| 2026-05-06 17:58 | 36.52637 | 63.71372 | 37880 ft | 443 kts | 306° |
| 2026-05-06 17:59 | 36.56387 | 63.65297 | 37862 ft | 443 kts | 306° |
| 2026-05-06 17:59 | 36.60134 | 63.59215 | 37855 ft | 443 kts | 305° |
| 2026-05-06 18:00 | 36.63854 | 63.53161 | 37844 ft | 443 kts | 306° |
| 2026-05-06 18:00 | 36.67600 | 63.47058 | 37844 ft | 443 kts | 305° |
| 2026-05-06 18:01 | 36.71338 | 63.40958 | 37844 ft | 443 kts | 305° |
| 2026-05-06 18:01 | 36.75080 | 63.34839 | 37838 ft | 444 kts | 305° |
| 2026-05-06 18:02 | 36.78823 | 63.28712 | 37841 ft | 444 kts | 305° |
| 2026-05-06 18:02 | 36.82562 | 63.22575 | 37843 ft | 444 kts | 305° |
| 2026-05-06 18:03 | 36.86301 | 63.16430 | 37843 ft | 444 kts | 305° |
| 2026-05-06 18:03 | 36.90037 | 63.10276 | 37844 ft | 444 kts | 305° |
| 2026-05-06 18:04 | 36.93771 | 63.04115 | 37846 ft | 445 kts | 305° |
| 2026-05-06 18:04 | 36.97501 | 62.97947 | 37844 ft | 445 kts | 305° |
| 2026-05-06 18:05 | 37.01226 | 62.91778 | 37841 ft | 445 kts | 305° |
| 2026-05-06 18:05 | 37.04952 | 62.85598 | 37843 ft | 445 kts | 305° |
| 2026-05-06 18:06 | 37.08673 | 62.79417 | 37852 ft | 444 kts | 304° |
| 2026-05-06 18:06 | 37.12385 | 62.73235 | 37851 ft | 443 kts | 304° |
| 2026-05-06 18:07 | 37.16084 | 62.67065 | 37842 ft | 443 kts | 304° |
| 2026-05-06 18:07 | 37.19157 | 62.61929 | 37836 ft | 443 kts | 304° |
| 2026-05-06 18:08 | 37.23451 | 62.54738 | 37839 ft | 443 kts | 304° |
| 2026-05-06 18:08 | 37.27142 | 62.48547 | 37827 ft | 443 kts | 304° |
| 2026-05-06 18:09 | 37.30231 | 62.43356 | 37831 ft | 443 kts | 304° |
| 2026-05-06 18:09 | 37.33922 | 62.37143 | 37832 ft | 444 kts | 304° |
| 2026-05-06 18:10 | 37.37612 | 62.30921 | 37829 ft | 445 kts | 303° |
| 2026-05-06 18:10 | 37.41304 | 62.24681 | 37832 ft | 445 kts | 303° |
| 2026-05-06 18:11 | 37.45000 | 62.18422 | 37831 ft | 446 kts | 303° |
| 2026-05-06 18:11 | 37.48703 | 62.12149 | 37839 ft | 446 kts | 303° |
| 2026-05-06 18:12 | 37.52399 | 62.05863 | 37836 ft | 447 kts | 303° |
| 2026-05-06 18:12 | 37.56098 | 61.99569 | 37839 ft | 447 kts | 303° |
| 2026-05-06 18:13 | 37.59790 | 61.93281 | 37835 ft | 446 kts | 303° |
| 2026-05-06 18:13 | 37.63132 | 61.86743 | 37831 ft | 443 kts | 296° |
| 2026-05-06 18:14 | 37.65902 | 61.79816 | 37833 ft | 442 kts | 294° |
| 2026-05-06 18:14 | 37.68667 | 61.72937 | 37833 ft | 442 kts | 294° |
| 2026-05-06 18:15 | 37.71441 | 61.66011 | 37829 ft | 442 kts | 294° |
| 2026-05-06 18:15 | 37.74205 | 61.59080 | 37827 ft | 442 kts | 294° |
| 2026-05-06 18:16 | 37.76958 | 61.52144 | 37833 ft | 441 kts | 294° |
| 2026-05-06 18:16 | 37.79696 | 61.45216 | 37832 ft | 441 kts | 294° |
| 2026-05-06 18:17 | 37.82438 | 61.38279 | 37838 ft | 441 kts | 294° |
| 2026-05-06 18:17 | 37.85174 | 61.31345 | 37837 ft | 440 kts | 294° |
| 2026-05-06 18:18 | 37.87899 | 61.24419 | 37846 ft | 439 kts | 294° |
| 2026-05-06 18:18 | 37.90621 | 61.17485 | 37839 ft | 439 kts | 294° |
| 2026-05-06 18:19 | 37.93333 | 61.10561 | 37840 ft | 438 kts | 294° |
| 2026-05-06 18:19 | 37.96036 | 61.03645 | 37837 ft | 438 kts | 294° |
| 2026-05-06 18:20 | 37.98736 | 60.96722 | 37840 ft | 438 kts | 293° |
| 2026-05-06 18:20 | 38.01430 | 60.89795 | 37828 ft | 438 kts | 293° |
| 2026-05-06 18:21 | 38.04120 | 60.82865 | 37819 ft | 438 kts | 292° |
| 2026-05-06 18:21 | 38.06790 | 60.75970 | 37829 ft | 438 kts | 293° |
| 2026-05-06 18:22 | 38.09488 | 60.68984 | 37831 ft | 438 kts | 293° |
| 2026-05-06 18:22 | 38.12152 | 60.62081 | 37832 ft | 438 kts | 293° |
| 2026-05-06 18:23 | 38.14826 | 60.55128 | 37840 ft | 438 kts | 293° |
| 2026-05-06 18:23 | 38.17497 | 60.48174 | 37848 ft | 438 kts | 292° |
| 2026-05-06 18:24 | 38.20161 | 60.41218 | 37840 ft | 438 kts | 292° |
| 2026-05-06 18:24 | 38.22822 | 60.34250 | 37948 ft | 440 kts | 292° |
| 2026-05-06 18:25 | 38.24156 | 60.30750 | 38288 ft | 440 kts | 292° |
| 2026-05-06 18:25 | 38.25489 | 60.27253 | 38652 ft | 439 kts | 292° |
| 2026-05-06 18:25 | 38.26818 | 60.23762 | 38978 ft | 438 kts | 292° |
| 2026-05-06 18:25 | 38.28147 | 60.20271 | 39302 ft | 438 kts | 292° |
| 2026-05-06 18:26 | 38.29473 | 60.16779 | 39582 ft | 438 kts | 292° |
| 2026-05-06 18:26 | 38.30798 | 60.13280 | 39825 ft | 440 kts | 292° |
| 2026-05-06 18:26 | 38.33446 | 60.06289 | 39841 ft | 434 kts | 292° |
| 2026-05-06 18:27 | 38.36067 | 59.99351 | 39840 ft | 436 kts | 292° |
| 2026-05-06 18:27 | 38.38694 | 59.92381 | 39850 ft | 435 kts | 292° |
| 2026-05-06 18:28 | 38.41313 | 59.85418 | 39851 ft | 436 kts | 292° |
| 2026-05-06 18:28 | 38.43914 | 59.78486 | 39846 ft | 436 kts | 292° |
| 2026-05-06 18:29 | 38.46526 | 59.71508 | 39851 ft | 436 kts | 292° |
| 2026-05-06 18:29 | 38.49138 | 59.64508 | 39864 ft | 437 kts | 291° |